createdAt,value
2023-04-13T00:02:16.658Z,41.60
2023-04-13T00:04:44.354Z,41.17
2023-04-13T00:07:14.999Z,36.35
2023-04-13T00:09:43.108Z,35.17
2023-04-13T00:12:11.173Z,35.78
2023-04-13T00:14:58.382Z,38.17
2023-04-13T00:17:47.634Z,38.08
2023-04-13T00:20:15.341Z,40.05
2023-04-13T00:22:43.425Z,39.95
2023-04-13T00:25:14.450Z,38.60
2023-04-13T00:27:43.579Z,36.28
2023-04-13T00:30:16.240Z,37.08
2023-04-13T00:32:45.666Z,38.05
2023-04-13T00:35:19.916Z,36.38
2023-04-13T00:37:50.001Z,35.85
2023-04-13T00:40:18.410Z,35.75
2023-04-13T00:42:50.756Z,34.95
2023-04-13T00:45:18.947Z,32.67
2023-04-13T00:47:48.782Z,36.78
2023-04-13T00:50:20.830Z,33.38
2023-04-13T00:52:48.880Z,42.65
2023-04-13T00:55:21.528Z,37.78
2023-04-13T00:57:53.062Z,33.17
2023-04-13T01:00:22.092Z,33.40
2023-04-13T01:02:50.845Z,33.88
2023-04-13T01:05:19.807Z,31.27
2023-04-13T01:07:53.746Z,34.58
2023-04-13T01:10:42.350Z,29.33
2023-04-13T01:13:20.706Z,28.48
2023-04-13T01:16:15.931Z,28.48
2023-04-13T01:18:49.233Z,30.40
2023-04-13T01:21:22.006Z,31.55
2023-04-13T01:23:49.296Z,29.63
2023-04-13T01:26:17.512Z,25.67
2023-04-13T01:28:47.483Z,31.38
2023-04-13T01:31:17.929Z,31.60
2023-04-13T01:33:46.870Z,32.33
2023-04-13T01:36:14.687Z,36.30
2023-04-13T01:38:42.389Z,32.90
2023-04-13T01:41:12.053Z,32.90
2023-04-13T01:43:45.283Z,32.00
2023-04-13T01:46:14.750Z,37.38
2023-04-13T01:49:11.099Z,35.33
2023-04-13T01:52:12.134Z,35.38
2023-04-13T01:54:44.346Z,38.75
2023-04-13T01:57:14.372Z,39.47
2023-04-13T01:59:41.704Z,36.58
2023-04-13T02:02:16.996Z,40.75
2023-04-13T02:04:44.416Z,34.75
2023-04-13T02:07:12.567Z,36.83
2023-04-13T02:09:45.956Z,37.92
2023-04-13T02:12:13.550Z,39.08
2023-04-13T02:14:40.756Z,40.58
2023-04-13T02:17:08.536Z,40.50
2023-04-13T02:19:35.702Z,38.67
2023-04-13T02:22:03.996Z,37.80
2023-04-13T02:24:32.971Z,39.25
2023-04-13T02:27:02.127Z,40.13
2023-04-13T02:29:29.821Z,35.45
2023-04-13T02:31:58.019Z,44.33
2023-04-13T02:34:26.227Z,39.55
2023-04-13T02:36:53.778Z,41.28
2023-04-13T02:39:21.083Z,40.47
2023-04-13T02:41:49.816Z,36.88
2023-04-13T02:44:22.249Z,36.08
2023-04-13T02:46:57.225Z,38.22
2023-04-13T02:49:25.181Z,32.60
2023-04-13T02:51:58.436Z,36.75
2023-04-13T02:54:38.387Z,36.00
2023-04-13T02:57:05.956Z,33.28
2023-04-13T02:59:36.839Z,30.35
2023-04-13T03:02:07.378Z,31.45
2023-04-13T03:04:34.899Z,29.80
2023-04-13T03:07:05.248Z,30.70
2023-04-13T03:09:34.517Z,33.60
2023-04-13T03:12:02.922Z,30.38
2023-04-13T03:14:33.268Z,28.33
2023-04-13T03:17:07.548Z,28.90
2023-04-13T03:19:38.941Z,28.30
2023-04-13T03:22:08.340Z,28.05
2023-04-13T03:24:40.757Z,27.92
2023-04-13T03:27:09.955Z,26.25
2023-04-13T03:29:45.456Z,27.08
2023-04-13T03:32:20.113Z,28.65
2023-04-13T03:34:50.728Z,28.67
2023-04-13T03:37:19.105Z,28.65
2023-04-13T03:39:46.881Z,28.98
2023-04-13T03:42:18.664Z,27.38
2023-04-13T03:44:53.100Z,26.52
2023-04-13T03:47:20.894Z,26.83
2023-04-13T03:49:48.260Z,25.25
2023-04-13T03:52:16.375Z,25.05
2023-04-13T03:54:51.348Z,26.35
2023-04-13T03:57:22.701Z,27.80
2023-04-13T03:59:50.814Z,29.70
2023-04-13T04:02:27.468Z,25.98
2023-04-13T04:04:55.174Z,31.90
2023-04-13T04:07:23.737Z,29.13
2023-04-13T04:09:51.675Z,28.48
2023-04-13T04:12:22.994Z,30.38
2023-04-13T04:14:50.899Z,28.17
2023-04-13T04:17:24.062Z,28.13
2023-04-13T04:19:51.487Z,31.67
2023-04-13T04:22:30.478Z,30.17
2023-04-13T04:25:02.047Z,29.73
2023-04-13T04:27:38.471Z,26.52
2023-04-13T04:30:10.990Z,30.23
2023-04-13T04:32:40.652Z,31.20
2023-04-13T04:35:14.396Z,26.02
2023-04-13T04:37:49.801Z,32.13
2023-04-13T04:40:18.780Z,31.20
2023-04-13T04:42:46.561Z,30.25
2023-04-13T04:45:23.590Z,33.47
2023-04-13T04:47:53.663Z,29.13
2023-04-13T04:50:26.070Z,29.95
2023-04-13T04:53:07.530Z,30.15
2023-04-13T04:55:34.961Z,32.60
2023-04-13T04:58:02.949Z,30.25
2023-04-13T05:00:32.174Z,29.50
2023-04-13T05:03:09.969Z,30.83
2023-04-13T05:05:41.148Z,28.80
2023-04-13T05:08:13.308Z,27.30
2023-04-13T05:10:46.687Z,29.27
2023-04-13T05:13:15.195Z,28.48
2023-04-13T05:15:49.109Z,28.38
2023-04-13T05:18:19.140Z,28.00
2023-04-13T05:20:46.579Z,28.48
2023-04-13T05:23:14.124Z,31.23
2023-04-13T05:25:48.987Z,27.02
2023-04-13T05:28:21.920Z,27.95
2023-04-13T05:30:49.835Z,26.33
2023-04-13T05:33:18.161Z,26.05
2023-04-13T05:35:48.587Z,28.60
2023-04-13T05:38:16.943Z,28.27
2023-04-13T05:40:45.199Z,30.95
2023-04-13T05:43:13.527Z,35.47
2023-04-13T05:45:47.129Z,34.00
2023-04-13T05:48:15.982Z,35.90
2023-04-13T05:50:44.912Z,29.92
2023-04-13T05:53:14.067Z,31.88
2023-04-13T05:55:48.490Z,31.92
2023-04-13T05:58:19.046Z,30.83
2023-04-13T06:00:49.094Z,28.75
2023-04-13T06:03:27.535Z,33.15
2023-04-13T06:05:55.265Z,31.30
2023-04-13T06:08:22.924Z,32.50
2023-04-13T06:10:51.800Z,26.65
2023-04-13T06:13:19.558Z,24.48
2023-04-13T06:15:46.939Z,26.23
2023-04-13T06:18:14.502Z,25.90
2023-04-13T06:20:41.742Z,26.45
2023-04-13T06:23:09.561Z,25.80
2023-04-13T06:25:36.836Z,28.95
2023-04-13T06:28:06.174Z,27.52
2023-04-13T06:30:37.363Z,28.57
2023-04-13T06:33:09.674Z,28.75
2023-04-13T06:35:38.699Z,25.48
2023-04-13T06:38:07.441Z,27.42
2023-04-13T06:40:46.924Z,25.00
2023-04-13T06:43:26.383Z,26.75
2023-04-13T06:46:19.576Z,25.15
2023-04-13T06:48:50.591Z,24.63
2023-04-13T06:53:49.241Z,28.90
2023-04-13T06:56:16.603Z,26.77
2023-04-13T06:58:45.568Z,24.77
2023-04-13T07:01:13.448Z,25.27
2023-04-13T07:03:41.798Z,22.63
2023-04-13T07:06:09.840Z,28.45
2023-04-13T07:08:38.071Z,28.20
2023-04-13T07:11:06.827Z,33.17
2023-04-13T07:13:38.388Z,26.83
2023-04-13T07:16:09.057Z,24.00
2023-04-13T07:18:38.947Z,27.33
2023-04-13T07:21:07.299Z,26.70
2023-04-13T07:23:54.480Z,25.08
2023-04-13T07:26:22.726Z,25.17
2023-04-13T07:28:50.297Z,22.65
2023-04-13T07:31:18.490Z,22.70
2023-04-13T07:33:49.003Z,22.63
2023-04-13T07:36:20.971Z,24.27
2023-04-13T07:38:51.492Z,25.13
2023-04-13T07:41:22.639Z,23.25
2023-04-13T07:43:53.978Z,25.90
2023-04-13T07:46:27.254Z,22.52
2023-04-13T07:48:56.414Z,24.92
2023-04-13T07:51:28.585Z,19.67
2023-04-13T07:53:56.459Z,25.08
2023-04-13T07:56:26.375Z,20.83
2023-04-13T07:58:54.577Z,20.90
2023-04-13T08:01:22.142Z,19.33
2023-04-13T08:03:50.689Z,20.05
2023-04-13T08:06:23.333Z,21.25
2023-04-13T08:08:52.817Z,21.77
2023-04-13T08:11:20.598Z,21.35
2023-04-13T08:13:52.685Z,22.70
2023-04-13T08:16:20.143Z,19.70
2023-04-13T08:18:47.999Z,20.08
2023-04-13T08:21:15.587Z,19.38
2023-04-13T08:23:46.443Z,22.93
2023-04-13T08:26:18.853Z,17.83
2023-04-13T08:28:50.385Z,20.15
2023-04-13T08:31:17.719Z,17.25
2023-04-13T08:33:52.356Z,19.15
2023-04-13T08:36:19.573Z,22.63
2023-04-13T08:38:52.372Z,19.73
2023-04-13T08:41:22.055Z,16.40
2023-04-13T08:43:52.777Z,18.25
2023-04-13T08:46:23.800Z,17.83
2023-04-13T08:48:55.048Z,18.08
2023-04-13T08:51:31.403Z,19.23
2023-04-13T08:53:59.544Z,23.02
2023-04-13T08:56:44.669Z,18.02
2023-04-13T08:59:17.699Z,21.73
2023-04-13T09:01:48.900Z,16.08
2023-04-13T09:04:20.833Z,20.88
2023-04-13T09:06:51.906Z,17.90
2023-04-13T09:09:21.434Z,19.83
2023-04-13T09:11:51.047Z,18.25
2023-04-13T09:14:22.463Z,17.80
2023-04-13T09:16:52.109Z,15.60
2023-04-13T09:19:33.194Z,16.52
2023-04-13T09:24:41.122Z,17.20
2023-04-13T09:27:19.155Z,17.83
2023-04-13T09:29:54.938Z,18.55
2023-04-13T09:32:22.971Z,17.25
2023-04-13T09:35:05.159Z,16.42
2023-04-13T09:40:23.632Z,17.10
2023-04-13T09:43:02.356Z,16.60
2023-04-13T09:45:46.474Z,13.95
2023-04-13T09:48:18.684Z,15.27
2023-04-13T09:50:46.712Z,14.40
2023-04-13T09:53:14.018Z,13.50
2023-04-13T09:55:41.912Z,17.38
2023-04-13T09:58:12.798Z,14.48
2023-04-13T10:00:45.661Z,12.80
2023-04-13T10:03:16.394Z,12.85
2023-04-13T10:05:58.717Z,10.98
2023-04-13T10:08:37.528Z,13.98
2023-04-13T10:11:11.978Z,12.90
2023-04-13T10:14:01.208Z,12.45
2023-04-13T10:16:38.671Z,12.32
2023-04-13T10:19:21.724Z,11.00
2023-04-13T10:21:51.914Z,9.35
2023-04-13T10:24:20.376Z,9.20
2023-04-13T10:26:48.643Z,10.00
2023-04-13T10:29:16.945Z,11.55
2023-04-13T10:31:47.209Z,11.70
2023-04-13T10:34:28.309Z,13.48
2023-04-13T10:36:58.728Z,12.48
2023-04-13T10:39:28.176Z,12.65
2023-04-13T10:42:03.429Z,14.40
2023-04-13T10:44:50.891Z,14.30
2023-04-13T10:47:20.754Z,12.90
2023-04-13T10:49:49.445Z,12.55
2023-04-13T10:52:17.552Z,12.90
2023-04-13T10:54:45.360Z,12.32
2023-04-13T10:57:13.540Z,13.07
2023-04-13T11:02:16.594Z,12.63
2023-04-13T11:04:47.844Z,11.20
2023-04-13T11:07:23.563Z,10.65
2023-04-13T11:09:51.085Z,11.70
2023-04-13T11:12:19.401Z,11.80
2023-04-13T11:14:51.085Z,15.63
2023-04-13T11:17:20.053Z,12.82
2023-04-13T11:19:55.388Z,14.18
2023-04-13T11:22:28.000Z,11.88
2023-04-13T11:25:06.952Z,11.02
2023-04-13T11:27:34.765Z,13.98
2023-04-13T11:30:06.771Z,14.35
2023-04-13T11:32:34.950Z,12.40
2023-04-13T11:35:15.403Z,14.02
2023-04-13T11:37:49.556Z,11.65
2023-04-13T11:40:21.507Z,12.43
2023-04-13T11:42:51.803Z,13.32
2023-04-13T11:45:21.885Z,12.95
2023-04-13T11:47:54.272Z,11.90
2023-04-13T11:50:22.587Z,11.90
2023-04-13T11:52:52.509Z,12.13
2023-04-13T11:55:23.594Z,13.27
2023-04-13T11:57:53.591Z,19.35
2023-04-13T12:00:26.819Z,22.58
2023-04-13T12:05:29.429Z,23.45
2023-04-13T12:07:58.997Z,35.10
2023-04-13T12:10:36.862Z,30.33
2023-04-13T12:16:05.399Z,30.35
2023-04-13T12:18:49.844Z,35.60
2023-04-13T12:21:20.395Z,32.83
2023-04-13T12:23:56.363Z,25.85
2023-04-13T12:27:16.497Z,30.83
2023-04-13T12:29:22.435Z,30.48
2023-04-13T12:31:49.724Z,34.40
2023-04-13T12:34:17.217Z,39.45
2023-04-13T12:36:44.482Z,32.80
2023-04-13T12:39:12.062Z,27.92
2023-04-13T12:41:39.272Z,34.58
2023-04-13T12:44:07.097Z,31.10
2023-04-13T12:46:34.455Z,35.55
2023-04-13T12:49:02.255Z,29.25
2023-04-13T12:51:29.826Z,36.30
2023-04-13T12:53:57.442Z,31.52
2023-04-13T12:56:24.792Z,31.30
2023-04-13T12:58:52.407Z,34.67
2023-04-13T13:01:19.782Z,34.38
2023-04-13T13:03:47.381Z,34.85
2023-04-13T13:06:14.750Z,36.25
2023-04-13T13:08:42.323Z,39.85
2023-04-13T13:11:09.607Z,28.63
2023-04-13T13:13:37.361Z,30.17
2023-04-13T13:16:04.894Z,32.33
2023-04-13T13:18:46.650Z,42.80
2023-04-13T13:21:18.146Z,34.50
2023-04-13T13:23:46.863Z,35.80
2023-04-13T13:28:45.795Z,34.85
2023-04-13T13:31:13.358Z,32.72
2023-04-13T13:33:41.024Z,27.40
2023-04-13T13:36:08.388Z,26.17
2023-04-13T13:38:36.896Z,26.40
2023-04-13T13:41:04.374Z,28.52
2023-04-13T13:43:32.423Z,25.95
2023-04-13T13:45:59.698Z,26.52
2023-04-13T13:48:27.997Z,26.73
2023-04-13T13:51:05.615Z,28.88
2023-04-13T13:53:35.089Z,32.63
2023-04-13T13:56:06.102Z,29.17
2023-04-13T13:58:33.663Z,28.92
2023-04-13T14:01:00.979Z,34.50
2023-04-13T14:03:28.751Z,25.90
2023-04-13T14:05:56.327Z,24.95
2023-04-13T14:08:23.789Z,24.55
2023-04-13T14:10:51.259Z,27.88
2023-04-13T14:13:18.738Z,28.85
2023-04-13T14:15:46.218Z,27.80
2023-04-13T14:18:13.892Z,30.25
2023-04-13T14:20:41.427Z,22.00
2023-04-13T14:23:09.893Z,24.58
2023-04-13T14:25:39.748Z,30.65
2023-04-13T14:28:09.182Z,18.75
2023-04-13T14:30:37.230Z,18.73
2023-04-13T14:33:06.217Z,21.17
2023-04-13T14:35:33.924Z,19.73
2023-04-13T14:38:01.948Z,19.90
2023-04-13T14:40:29.519Z,18.35
2023-04-13T14:42:57.072Z,15.10
2023-04-13T14:45:25.358Z,19.67
2023-04-13T14:47:54.166Z,21.73
2023-04-13T14:50:21.705Z,17.85
2023-04-13T14:52:50.269Z,22.08
2023-04-13T14:55:17.983Z,29.80
2023-04-13T14:57:46.053Z,17.63
2023-04-13T15:00:18.207Z,20.75
2023-04-13T15:02:46.092Z,15.30
2023-04-13T15:05:13.552Z,18.58
2023-04-13T15:07:44.636Z,17.73
2023-04-13T15:10:12.746Z,18.10
2023-04-13T15:12:41.455Z,25.60
2023-04-13T15:15:09.915Z,19.17
2023-04-13T15:17:37.493Z,18.13
2023-04-13T15:20:07.562Z,19.95
2023-04-13T15:22:36.324Z,20.48
2023-04-13T15:25:04.616Z,16.88
2023-04-13T15:27:32.265Z,18.92
2023-04-13T15:30:03.839Z,13.85
2023-04-13T15:32:34.138Z,15.85
2023-04-13T15:35:01.671Z,15.57
2023-04-13T15:37:29.294Z,16.50
2023-04-13T15:39:56.862Z,16.48
2023-04-13T15:42:26.121Z,13.38
2023-04-13T15:44:54.828Z,14.40
2023-04-13T15:47:22.991Z,12.40
2023-04-13T15:49:50.447Z,15.32
2023-04-13T15:52:18.024Z,13.98
2023-04-13T15:54:45.330Z,10.50
2023-04-13T15:57:12.871Z,13.43
2023-04-13T15:59:40.150Z,16.25
2023-04-13T16:02:07.838Z,16.13
2023-04-13T16:04:35.521Z,14.60
2023-04-13T16:07:12.828Z,16.30
2023-04-13T16:09:43.932Z,13.00
2023-04-13T16:12:11.877Z,17.85
2023-04-13T16:14:41.969Z,20.92
2023-04-13T16:17:10.563Z,17.50
2023-04-13T16:19:38.275Z,17.25
2023-04-13T16:22:06.095Z,21.95
2023-04-13T16:24:33.734Z,19.48
2023-04-13T16:27:02.324Z,13.07
2023-04-13T16:29:29.861Z,14.95
2023-04-13T16:31:57.342Z,19.15
2023-04-13T16:34:26.616Z,14.45
2023-04-13T16:36:54.674Z,14.90
2023-04-13T16:39:22.497Z,15.05
2023-04-13T16:41:50.351Z,18.95
2023-04-13T16:44:17.618Z,23.70
2023-04-13T16:46:45.159Z,20.48
2023-04-13T16:49:12.622Z,18.27
2023-04-13T16:51:40.188Z,21.02
2023-04-13T16:54:07.696Z,15.88
2023-04-13T16:56:35.368Z,19.67
2023-04-13T16:59:03.303Z,13.68
2023-04-13T17:01:31.651Z,13.73
2023-04-13T17:03:59.065Z,14.57
2023-04-13T17:06:27.413Z,15.07
2023-04-13T17:08:54.740Z,11.93
2023-04-13T17:11:23.292Z,15.13
2023-04-13T17:13:51.501Z,13.80
2023-04-13T17:16:19.424Z,9.75
2023-04-13T17:18:46.656Z,12.32
2023-04-13T17:21:14.531Z,11.50
2023-04-13T17:23:42.004Z,16.63
2023-04-13T17:26:09.773Z,11.77
2023-04-13T17:28:37.073Z,16.55
2023-04-13T17:31:05.938Z,18.02
2023-04-13T17:33:33.740Z,25.85
2023-04-13T17:36:01.519Z,21.63
2023-04-13T17:38:28.784Z,23.85
2023-04-13T17:40:56.505Z,24.55
2023-04-13T17:43:23.789Z,24.92
2023-04-13T17:45:51.429Z,21.25
2023-04-13T17:48:18.767Z,23.05
2023-04-13T17:50:46.554Z,19.80
2023-04-13T17:53:13.911Z,22.83
2023-04-13T17:55:41.568Z,16.77
2023-04-13T17:58:10.784Z,15.88
2023-04-13T18:00:38.428Z,14.80
2023-04-13T18:03:06.281Z,13.20
2023-04-13T18:05:33.892Z,15.80
2023-04-13T18:08:01.171Z,16.50
2023-04-13T18:10:28.840Z,12.35
2023-04-13T18:12:59.794Z,14.18
2023-04-13T18:15:27.957Z,10.38
2023-04-13T18:17:55.302Z,12.25
2023-04-13T18:20:23.114Z,11.23
2023-04-13T18:22:50.428Z,11.63
2023-04-13T18:25:18.122Z,10.25
2023-04-13T18:27:45.529Z,10.63
2023-04-13T18:30:13.915Z,12.70
2023-04-13T18:32:41.485Z,11.75
2023-04-13T18:35:10.260Z,12.10
2023-04-13T18:37:40.988Z,10.52
2023-04-13T18:40:09.434Z,10.30
2023-04-13T18:42:39.988Z,10.15
2023-04-13T18:45:08.318Z,9.83
2023-04-13T18:47:36.027Z,11.32
2023-04-13T18:50:05.970Z,10.95
2023-04-13T18:52:33.759Z,9.07
2023-04-13T18:55:01.437Z,10.15
2023-04-13T18:57:31.109Z,11.93
2023-04-13T18:59:58.729Z,11.88
2023-04-13T19:02:26.284Z,11.15
2023-04-13T19:04:54.004Z,11.85
2023-04-13T19:07:21.245Z,11.13
2023-04-13T19:09:48.875Z,10.77
2023-04-13T19:12:16.155Z,10.32
2023-04-13T19:14:43.774Z,10.75
2023-04-13T19:17:11.070Z,10.18
2023-04-13T19:19:38.579Z,10.10
2023-04-13T19:22:06.956Z,10.40
2023-04-13T19:24:34.578Z,14.02
2023-04-13T19:27:01.858Z,10.20
2023-04-13T19:29:30.403Z,12.63
2023-04-13T19:31:58.391Z,11.93
2023-04-13T19:34:26.344Z,10.85
2023-04-13T19:36:53.816Z,11.35
2023-04-13T19:39:21.471Z,12.45
2023-04-13T19:41:48.858Z,12.10
2023-04-13T19:44:17.274Z,13.63
2023-04-13T19:46:44.617Z,12.73
2023-04-13T19:49:13.726Z,11.00
2023-04-13T19:51:41.214Z,12.43
2023-04-13T19:54:09.086Z,13.40
2023-04-13T19:56:36.557Z,13.32
2023-04-13T19:59:05.593Z,14.32
2023-04-13T20:01:34.325Z,15.73
2023-04-13T20:04:06.877Z,17.40
2023-04-13T20:06:34.880Z,18.45
2023-04-13T20:09:09.349Z,17.92
2023-04-13T20:11:36.959Z,18.00
2023-04-13T20:14:05.519Z,18.20
2023-04-13T20:16:33.339Z,21.50
2023-04-13T20:19:01.473Z,19.15
2023-04-13T20:21:31.206Z,19.70
2023-04-13T20:24:00.048Z,19.58
2023-04-13T20:26:29.942Z,18.98
2023-04-13T20:28:59.100Z,17.70
2023-04-13T20:31:28.336Z,16.27
2023-04-13T20:33:56.641Z,16.75
2023-04-13T20:36:25.725Z,20.30
2023-04-13T20:38:54.454Z,19.35
2023-04-13T20:41:22.048Z,18.40
2023-04-13T20:43:50.877Z,19.70
2023-04-13T20:46:18.388Z,19.08
2023-04-13T20:48:51.395Z,18.45
2023-04-13T20:51:22.811Z,20.23
2023-04-13T20:53:50.405Z,15.23
2023-04-13T20:56:19.175Z,15.55
2023-04-13T20:58:47.453Z,14.65
2023-04-13T21:01:15.518Z,15.20
2023-04-13T21:03:43.618Z,14.75
2023-04-13T21:06:11.132Z,16.83
2023-04-13T21:08:38.811Z,16.10
2023-04-13T21:11:06.419Z,14.80
2023-04-13T21:13:33.996Z,12.45
2023-04-13T21:16:01.403Z,16.50
2023-04-13T21:18:29.063Z,14.45
2023-04-13T21:20:56.770Z,16.50
2023-04-13T21:23:24.416Z,17.30
2023-04-13T21:25:51.634Z,13.93
2023-04-13T21:28:19.160Z,18.35
2023-04-13T21:30:46.452Z,18.00
2023-04-13T21:33:14.006Z,16.25
2023-04-13T21:35:41.337Z,16.35
2023-04-13T21:38:09.125Z,13.75
2023-04-13T21:40:36.408Z,12.88
2023-04-13T21:43:03.969Z,14.10
2023-04-13T21:45:31.874Z,16.08
2023-04-13T21:47:59.532Z,12.35
2023-04-13T21:50:26.824Z,14.85
2023-04-13T21:52:54.370Z,13.98
2023-04-13T21:55:21.833Z,14.40
2023-04-13T21:57:49.844Z,13.13
2023-04-13T22:00:18.105Z,13.95
2023-04-13T22:02:45.821Z,16.63
2023-04-13T22:05:13.418Z,17.65
2023-04-13T22:07:43.285Z,14.02
2023-04-13T22:10:11.562Z,12.40
2023-04-13T22:12:39.156Z,14.27
2023-04-13T22:15:07.032Z,13.95
2023-04-13T22:17:34.792Z,12.88
2023-04-13T22:20:02.462Z,13.85
2023-04-13T22:22:30.086Z,12.77
2023-04-13T22:24:57.461Z,13.73
2023-04-13T22:27:24.984Z,16.83
2023-04-13T22:29:54.801Z,18.58
2023-04-13T22:32:22.402Z,14.32
2023-04-13T22:34:49.968Z,14.18
2023-04-13T22:37:17.764Z,15.93
2023-04-13T22:39:45.186Z,16.80
2023-04-13T22:42:12.896Z,15.20
2023-04-13T22:44:40.153Z,16.58
2023-04-13T22:47:07.684Z,14.05
2023-04-13T22:49:34.954Z,15.82
2023-04-13T22:52:02.645Z,16.67
2023-04-13T22:54:30.114Z,20.17
2023-04-13T22:56:57.606Z,14.23
2023-04-13T22:59:25.568Z,17.08
2023-04-13T23:01:53.265Z,15.73
2023-04-13T23:04:20.843Z,18.33
2023-04-13T23:06:49.947Z,17.38
2023-04-13T23:09:17.131Z,16.92
2023-04-13T23:11:44.616Z,14.23
2023-04-13T23:14:12.505Z,16.65
2023-04-13T23:16:40.162Z,16.75
2023-04-13T23:19:07.505Z,15.52
2023-04-13T23:21:35.877Z,17.13
2023-04-13T23:24:03.187Z,17.05
2023-04-13T23:26:30.985Z,17.98
2023-04-13T23:28:58.405Z,17.63
2023-04-13T23:31:26.185Z,13.82
2023-04-13T23:33:54.956Z,16.73
2023-04-13T23:36:22.755Z,16.65
2023-04-13T23:38:50.122Z,15.32
2023-04-13T23:41:17.734Z,16.40
2023-04-13T23:43:45.035Z,15.15
2023-04-13T23:46:13.173Z,15.57
2023-04-13T23:48:40.647Z,16.83
2023-04-13T23:51:08.225Z,20.73
2023-04-13T23:53:35.769Z,16.90
2023-04-13T23:56:03.469Z,16.42
2023-04-13T23:58:31.017Z,15.85
